createdAt,value
2023-05-04T00:01:35.303Z,17.27
2023-05-04T00:04:42.693Z,14.63
2023-05-04T00:07:46.621Z,14.15
2023-05-04T00:10:50.003Z,17.58
2023-05-04T00:13:53.687Z,19.92
2023-05-04T00:16:57.246Z,19.10
2023-05-04T00:20:03.235Z,16.60
2023-05-04T00:23:07.197Z,13.93
2023-05-04T00:26:11.172Z,19.57
2023-05-04T00:29:14.689Z,14.05
2023-05-04T00:32:18.341Z,16.85
2023-05-04T00:35:23.195Z,13.07
2023-05-04T00:38:26.935Z,14.13
2023-05-04T00:41:30.667Z,15.35
2023-05-04T00:44:34.721Z,12.52
2023-05-04T00:47:39.900Z,15.35
2023-05-04T00:50:45.599Z,16.67
2023-05-04T00:53:50.768Z,15.27
2023-05-04T00:56:54.970Z,20.10
2023-05-04T00:59:58.461Z,18.65
2023-05-04T01:03:02.330Z,19.92
2023-05-04T01:06:26.422Z,18.57
2023-05-04T01:09:44.333Z,21.40
2023-05-04T01:12:57.268Z,23.75
2023-05-04T01:16:01.459Z,21.05
2023-05-04T01:19:05.058Z,20.63
2023-05-04T01:22:10.358Z,16.35
2023-05-04T01:25:14.500Z,17.98
2023-05-04T01:28:24.775Z,23.70
2023-05-04T01:31:29.297Z,20.73
2023-05-04T01:34:33.223Z,20.63
2023-05-04T01:37:38.653Z,18.93
2023-05-04T01:40:42.528Z,20.45
2023-05-04T01:43:46.027Z,20.38
2023-05-04T01:46:50.090Z,22.63
2023-05-04T01:49:53.593Z,21.05
2023-05-04T01:52:58.953Z,19.08
2023-05-04T01:56:02.617Z,23.17
2023-05-04T01:59:06.616Z,21.13
2023-05-04T02:02:10.779Z,20.70
2023-05-04T02:05:14.856Z,24.90
2023-05-04T02:08:20.058Z,24.67
2023-05-04T02:11:23.867Z,19.40
2023-05-04T02:14:30.531Z,15.65
2023-05-04T02:17:34.818Z,19.63
2023-05-04T02:20:39.173Z,19.70
2023-05-04T02:23:44.367Z,15.63
2023-05-04T02:26:47.957Z,21.58
2023-05-04T02:29:51.828Z,13.57
2023-05-04T02:32:55.512Z,19.35
2023-05-04T02:35:59.199Z,23.95
2023-05-04T02:39:04.080Z,19.57
2023-05-04T02:42:07.725Z,23.17
2023-05-04T02:45:12.498Z,18.52
2023-05-04T02:48:16.224Z,16.45
2023-05-04T02:51:20.356Z,21.10
2023-05-04T02:54:25.585Z,18.02
2023-05-04T02:57:29.326Z,18.35
2023-05-04T03:00:33.034Z,16.00
2023-05-04T03:03:36.532Z,16.92
2023-05-04T03:06:40.279Z,16.75
2023-05-04T03:09:47.572Z,14.83
2023-05-04T03:12:51.923Z,17.52
2023-05-04T03:15:56.121Z,15.65
2023-05-04T03:19:00.058Z,18.33
2023-05-04T03:22:04.088Z,22.70
2023-05-04T03:25:10.650Z,16.67
2023-05-04T03:28:14.247Z,18.65
2023-05-04T03:31:19.135Z,15.47
2023-05-04T03:34:26.430Z,19.13
2023-05-04T03:37:36.389Z,19.20
2023-05-04T03:40:41.870Z,21.70
2023-05-04T03:43:45.655Z,18.40
2023-05-04T03:46:49.242Z,18.55
2023-05-04T03:49:53.182Z,20.02
2023-05-04T03:52:57.551Z,16.77
2023-05-04T03:56:05.129Z,15.32
2023-05-04T03:59:08.701Z,19.17
2023-05-04T04:02:13.410Z,11.37
2023-05-04T04:05:17.495Z,18.48
2023-05-04T04:08:21.644Z,17.45
2023-05-04T04:11:27.619Z,15.07
2023-05-04T04:14:31.574Z,18.33
2023-05-04T04:17:35.309Z,15.43
2023-05-04T04:20:39.022Z,12.85
2023-05-04T04:23:42.614Z,11.98
2023-05-04T04:26:47.697Z,14.63
2023-05-04T04:29:51.682Z,14.25
2023-05-04T04:32:57.049Z,14.37
2023-05-04T04:36:00.656Z,17.00
2023-05-04T04:39:06.024Z,12.38
2023-05-04T04:42:11.693Z,23.03
2023-05-04T04:45:16.030Z,16.13
2023-05-04T04:48:22.060Z,20.58
2023-05-04T04:51:25.879Z,16.45
2023-05-04T04:54:29.629Z,17.48
2023-05-04T04:57:34.795Z,17.23
2023-05-04T05:00:39.062Z,17.75
2023-05-04T05:03:42.752Z,18.90
2023-05-04T05:06:46.455Z,19.00
2023-05-04T05:09:50.129Z,16.95
2023-05-04T05:12:55.349Z,17.70
2023-05-04T05:15:59.175Z,17.85
2023-05-04T05:19:03.747Z,13.52
2023-05-04T05:22:07.407Z,18.60
2023-05-04T05:25:12.267Z,12.35
2023-05-04T05:28:17.554Z,8.80
2023-05-04T05:31:22.232Z,11.98
2023-05-04T05:34:26.189Z,13.85
2023-05-04T05:37:29.706Z,7.93
2023-05-04T05:40:33.347Z,5.93
2023-05-04T05:43:38.730Z,7.67
2023-05-04T05:46:42.481Z,4.80
2023-05-04T05:49:46.593Z,6.85
2023-05-04T05:52:50.419Z,5.43
2023-05-04T05:55:53.855Z,5.72
2023-05-04T05:58:58.942Z,8.32
2023-05-04T06:02:02.449Z,8.07
2023-05-04T06:05:06.806Z,6.50
2023-05-04T06:08:10.498Z,10.02
2023-05-04T06:11:14.159Z,11.13
2023-05-04T06:14:18.989Z,8.67
2023-05-04T06:17:22.774Z,9.90
2023-05-04T06:20:26.369Z,10.30
2023-05-04T06:23:31.703Z,12.57
2023-05-04T06:26:35.230Z,13.60
2023-05-04T06:29:41.305Z,10.43
2023-05-04T06:32:45.338Z,11.93
2023-05-04T06:35:49.038Z,11.07
2023-05-04T06:38:53.226Z,9.82
2023-05-04T06:41:57.139Z,6.70
2023-05-04T06:45:04.474Z,9.53
2023-05-04T06:48:09.283Z,7.05
2023-05-04T06:51:13.366Z,10.55
2023-05-04T06:54:17.095Z,7.82
2023-05-04T06:57:20.662Z,8.40
2023-05-04T07:00:26.994Z,7.22
2023-05-04T07:03:30.719Z,6.38
2023-05-04T07:06:34.494Z,5.27
2023-05-04T07:09:38.134Z,5.35
2023-05-04T07:12:41.858Z,6.20
2023-05-04T07:15:47.006Z,5.23
2023-05-04T07:18:50.831Z,4.28
2023-05-04T07:21:54.373Z,8.40
2023-05-04T07:24:59.322Z,4.75
2023-05-04T07:28:03.094Z,5.38
2023-05-04T07:31:08.324Z,7.00
2023-05-04T07:34:11.979Z,8.27
2023-05-04T07:37:16.692Z,5.77
2023-05-04T07:40:21.648Z,5.82
2023-05-04T07:43:25.434Z,5.07
2023-05-04T07:46:31.149Z,3.77
2023-05-04T07:49:35.319Z,5.63
2023-05-04T07:52:39.367Z,4.78
2023-05-04T07:55:43.247Z,3.60
2023-05-04T07:58:47.536Z,7.70
2023-05-04T08:01:52.796Z,3.53
2023-05-04T08:04:56.442Z,4.85
2023-05-04T08:08:00.137Z,3.73
2023-05-04T08:11:18.681Z,3.85
2023-05-04T08:14:24.001Z,4.50
2023-05-04T08:17:29.845Z,3.97
2023-05-04T08:20:33.552Z,3.53
2023-05-04T08:23:37.656Z,2.90
2023-05-04T08:26:42.514Z,5.90
2023-05-04T08:29:47.648Z,4.78
2023-05-04T08:32:55.300Z,6.22
2023-05-04T08:35:59.188Z,4.35
2023-05-04T08:39:02.850Z,4.13
2023-05-04T08:42:06.904Z,3.35
2023-05-04T08:45:11.489Z,3.30
2023-05-04T08:48:16.590Z,2.50
2023-05-04T08:51:21.259Z,2.67
2023-05-04T08:54:26.529Z,6.90
2023-05-04T08:57:31.319Z,3.83
2023-05-04T09:00:35.810Z,3.93
2023-05-04T09:03:42.142Z,3.72
2023-05-04T09:06:47.443Z,2.90
2023-05-04T09:09:51.875Z,3.40
2023-05-04T09:12:56.330Z,3.05
2023-05-04T09:16:00.608Z,3.22
2023-05-04T09:19:06.516Z,3.00
2023-05-04T09:22:17.174Z,2.63
2023-05-04T09:25:20.739Z,2.90
2023-05-04T09:28:39.123Z,4.80
2023-05-04T09:31:47.370Z,3.97
2023-05-04T09:34:54.931Z,2.60
2023-05-04T09:37:59.013Z,3.75
2023-05-04T09:41:02.709Z,2.60
2023-05-04T09:44:06.828Z,3.80
2023-05-04T09:47:11.622Z,2.95
2023-05-04T09:50:22.159Z,2.47
2023-05-04T09:53:28.517Z,3.10
2023-05-04T09:56:46.121Z,3.85
2023-05-04T09:59:52.258Z,2.97
2023-05-04T10:02:57.220Z,3.90
2023-05-04T10:06:06.150Z,3.33
2023-05-04T10:09:11.855Z,3.50
2023-05-04T10:12:15.631Z,4.83
2023-05-04T10:15:23.609Z,4.22
2023-05-04T10:18:50.848Z,2.60
2023-05-04T10:22:18.827Z,2.90
2023-05-04T10:26:14.327Z,4.93
2023-05-04T10:29:24.974Z,4.00
2023-05-04T10:32:29.512Z,2.63
2023-05-04T10:35:33.454Z,2.60
2023-05-04T10:38:41.331Z,5.30
2023-05-04T10:42:01.597Z,2.60
2023-05-04T10:45:06.037Z,3.30
2023-05-04T10:48:11.076Z,2.83
2023-05-04T10:51:22.485Z,2.53
2023-05-04T10:54:27.860Z,2.70
2023-05-04T10:57:31.408Z,2.78
2023-05-04T11:00:39.905Z,3.65
2023-05-04T11:03:43.883Z,1.65
2023-05-04T11:06:58.666Z,2.57
2023-05-04T11:10:04.501Z,3.05
2023-05-04T11:13:13.252Z,2.72
2023-05-04T11:16:24.583Z,3.07
2023-05-04T11:19:28.542Z,3.03
2023-05-04T11:22:34.051Z,3.50
2023-05-04T11:25:39.909Z,3.25
2023-05-04T11:28:44.164Z,4.28
2023-05-04T11:31:55.785Z,3.17
2023-05-04T11:34:59.189Z,3.10
2023-05-04T11:38:03.638Z,3.30
2023-05-04T11:41:10.294Z,2.00
2023-05-04T11:44:14.102Z,1.58
2023-05-04T11:47:17.995Z,2.13
2023-05-04T11:50:22.582Z,3.65
2023-05-04T11:53:26.411Z,2.28
2023-05-04T11:56:43.248Z,2.42
2023-05-04T11:59:50.323Z,2.42
2023-05-04T12:02:57.355Z,2.65
2023-05-04T12:06:02.881Z,4.22
2023-05-04T12:09:08.396Z,4.37
2023-05-04T12:12:13.285Z,2.40
2023-05-04T12:15:17.325Z,3.42
2023-05-04T12:18:29.564Z,1.80
2023-05-04T12:21:35.971Z,2.97
2023-05-04T12:24:39.797Z,2.63
2023-05-04T12:27:44.946Z,2.08
2023-05-04T12:30:49.895Z,4.95
2023-05-04T12:33:53.551Z,2.80
2023-05-04T12:36:56.978Z,9.75
2023-05-04T12:40:00.881Z,2.95
2023-05-04T12:43:05.950Z,2.65
2023-05-04T12:46:10.353Z,2.67
2023-05-04T12:49:15.631Z,2.25
2023-05-04T12:52:19.691Z,2.70
2023-05-04T12:55:25.279Z,3.28
2023-05-04T12:58:31.181Z,2.60
2023-05-04T13:01:34.887Z,3.20
2023-05-04T13:04:39.005Z,2.92
2023-05-04T13:07:42.526Z,2.45
2023-05-04T13:10:46.514Z,2.10
2023-05-04T13:13:53.137Z,2.20
2023-05-04T13:16:57.078Z,2.47
2023-05-04T13:20:01.541Z,2.65
2023-05-04T13:23:05.403Z,2.20
2023-05-04T13:26:08.811Z,3.13
2023-05-04T13:29:14.033Z,2.33
2023-05-04T13:32:17.546Z,5.40
2023-05-04T13:35:22.072Z,2.80
2023-05-04T13:38:25.637Z,3.35
2023-05-04T13:41:29.656Z,4.43
2023-05-04T13:44:35.008Z,2.50
2023-05-04T13:47:40.268Z,13.80
2023-05-04T13:50:43.811Z,10.65
2023-05-04T13:53:47.593Z,3.80
2023-05-04T13:56:52.155Z,2.25
2023-05-04T14:00:07.039Z,2.45
2023-05-04T14:03:14.682Z,3.27
2023-05-04T14:06:18.554Z,17.00
2023-05-04T14:09:22.198Z,9.77
2023-05-04T14:12:26.178Z,3.38
2023-05-04T14:15:32.028Z,2.35
2023-05-04T14:18:35.895Z,2.27
2023-05-04T14:21:39.497Z,3.75
2023-05-04T14:24:43.263Z,2.53
2023-05-04T14:27:46.649Z,3.55
2023-05-04T14:30:52.254Z,2.88
2023-05-04T14:33:56.995Z,2.57
2023-05-04T14:37:01.712Z,2.13
2023-05-04T14:40:07.203Z,4.32
2023-05-04T14:43:11.468Z,2.13
2023-05-04T14:46:16.378Z,3.38
2023-05-04T14:49:32.553Z,2.17
2023-05-04T14:52:40.496Z,3.25
2023-05-04T14:55:45.057Z,7.40
2023-05-04T14:58:48.454Z,16.23
2023-05-04T15:01:55.242Z,17.23
2023-05-04T15:04:59.306Z,3.40
2023-05-04T15:08:03.505Z,4.03
2023-05-04T15:11:07.000Z,2.00
2023-05-04T15:14:11.146Z,9.48
2023-05-04T15:17:17.195Z,4.40
2023-05-04T15:20:22.270Z,2.33
2023-05-04T15:23:25.669Z,2.33
2023-05-04T15:26:31.166Z,3.55
2023-05-04T15:29:34.661Z,2.30
2023-05-04T15:32:39.948Z,2.40
2023-05-04T15:35:43.388Z,4.30
2023-05-04T15:38:47.288Z,9.65
2023-05-04T15:41:50.727Z,8.65
2023-05-04T15:44:54.376Z,2.80
2023-05-04T15:48:00.314Z,2.63
2023-05-04T15:51:04.300Z,5.07
2023-05-04T15:54:07.752Z,2.10
2023-05-04T15:57:11.822Z,2.65
2023-05-04T16:00:16.370Z,3.38
2023-05-04T16:03:23.603Z,1.70
2023-05-04T16:06:27.239Z,3.00
2023-05-04T16:09:31.709Z,3.30
2023-05-04T16:12:35.219Z,2.03
2023-05-04T16:15:39.128Z,2.25
2023-05-04T16:18:43.940Z,4.82
2023-05-04T16:21:47.877Z,2.63
2023-05-04T16:24:51.394Z,4.88
2023-05-04T16:27:55.245Z,2.08
2023-05-04T16:30:58.949Z,2.28
2023-05-04T16:34:04.467Z,1.67
2023-05-04T16:37:10.233Z,4.23
2023-05-04T16:40:16.467Z,4.57
2023-05-04T16:43:20.585Z,2.20
2023-05-04T16:46:24.763Z,2.50
2023-05-04T16:49:30.649Z,3.25
2023-05-04T16:52:34.739Z,3.50
2023-05-04T16:55:38.219Z,2.17
2023-05-04T16:58:42.338Z,3.87
2023-05-04T17:01:45.913Z,3.53
2023-05-04T17:04:51.204Z,3.08
2023-05-04T17:07:54.882Z,2.23
2023-05-04T17:11:00.760Z,2.00
2023-05-04T17:14:04.517Z,3.50
2023-05-04T17:17:08.405Z,2.40
2023-05-04T17:20:14.998Z,2.42
2023-05-04T17:23:19.039Z,2.10
2023-05-04T17:26:22.405Z,4.03
2023-05-04T17:29:26.411Z,3.15
2023-05-04T17:32:30.766Z,2.72
2023-05-04T17:35:36.068Z,2.20
2023-05-04T17:38:39.751Z,2.80
2023-05-04T17:41:43.473Z,4.10
2023-05-04T17:44:46.902Z,3.40
2023-05-04T17:47:52.494Z,4.65
2023-05-04T17:50:57.514Z,2.25
2023-05-04T17:54:01.193Z,2.53
2023-05-04T17:57:04.633Z,3.13
2023-05-04T18:00:11.073Z,2.83
2023-05-04T18:03:14.626Z,3.33
2023-05-04T18:06:19.855Z,3.33
2023-05-04T18:09:23.608Z,2.40
2023-05-04T18:12:27.236Z,2.92
2023-05-04T18:15:30.652Z,2.40
2023-05-04T18:18:34.532Z,3.38
2023-05-04T18:21:39.515Z,2.30
2023-05-04T18:24:43.171Z,2.58
2023-05-04T18:27:47.377Z,4.63
2023-05-04T18:30:51.212Z,3.33
2023-05-04T18:33:54.617Z,3.35
2023-05-04T18:36:59.696Z,4.90
2023-05-04T18:40:04.676Z,3.97
2023-05-04T18:43:08.946Z,4.50
2023-05-04T18:46:12.422Z,4.85
2023-05-04T18:49:16.675Z,8.38
2023-05-04T18:52:21.901Z,5.00
2023-05-04T18:55:26.752Z,7.95
2023-05-04T18:58:30.239Z,5.78
2023-05-04T19:01:34.035Z,7.72
2023-05-04T19:04:37.491Z,8.35
2023-05-04T19:07:42.610Z,11.20
2023-05-04T19:10:47.198Z,8.77
2023-05-04T19:13:50.880Z,9.93
2023-05-04T19:16:54.250Z,10.90
2023-05-04T19:19:58.161Z,7.35
2023-05-04T19:23:02.956Z,11.20
2023-05-04T19:26:06.840Z,13.48
2023-05-04T19:29:10.209Z,15.27
2023-05-04T19:32:23.673Z,15.30
2023-05-04T19:35:28.008Z,15.20
2023-05-04T19:38:33.248Z,12.60
2023-05-04T19:41:37.402Z,12.98
2023-05-04T19:44:41.214Z,11.77
2023-05-04T19:47:45.502Z,10.40
2023-05-04T19:50:49.347Z,11.32
2023-05-04T19:53:54.233Z,9.10
2023-05-04T19:56:57.867Z,8.23
2023-05-04T20:00:02.051Z,12.32
2023-05-04T20:03:17.079Z,12.68
2023-05-04T20:06:20.586Z,12.32
2023-05-04T20:09:25.773Z,14.20
2023-05-04T20:12:29.634Z,10.93
2023-05-04T20:15:33.123Z,11.70
2023-05-04T20:18:37.121Z,11.50
2023-05-04T20:21:40.734Z,15.35
2023-05-04T20:24:45.931Z,11.80
2023-05-04T20:27:52.097Z,12.10
2023-05-04T20:30:55.859Z,10.73
2023-05-04T20:33:59.395Z,11.27
2023-05-04T20:37:03.742Z,9.68
2023-05-04T20:40:10.894Z,10.07
2023-05-04T20:43:14.824Z,9.10
2023-05-04T20:46:18.333Z,8.13
2023-05-04T20:49:22.001Z,8.45
2023-05-04T20:52:25.966Z,8.15
2023-05-04T20:55:31.642Z,11.93
2023-05-04T20:58:35.127Z,8.40
2023-05-04T21:01:39.211Z,8.93
2023-05-04T21:04:43.433Z,6.10
2023-05-04T21:07:47.273Z,6.97
2023-05-04T21:10:53.015Z,6.80
2023-05-04T21:13:56.794Z,17.63
2023-05-04T21:17:00.225Z,7.80
2023-05-04T21:20:04.131Z,8.93
2023-05-04T21:23:07.527Z,8.43
2023-05-04T21:26:13.121Z,11.87
2023-05-04T21:29:16.816Z,10.43
2023-05-04T21:32:20.834Z,9.57
2023-05-04T21:35:24.636Z,11.32
2023-05-04T21:38:28.383Z,12.02
2023-05-04T21:41:33.294Z,11.52
2023-05-04T21:44:37.066Z,10.85
2023-05-04T21:47:40.702Z,10.87
2023-05-04T21:50:44.625Z,10.32
2023-05-04T21:53:48.167Z,14.10
2023-05-04T21:56:54.083Z,11.15
2023-05-04T21:59:57.591Z,13.00
2023-05-04T22:03:01.519Z,12.20
2023-05-04T22:06:06.495Z,14.38
2023-05-04T22:09:10.329Z,10.57
2023-05-04T22:12:15.719Z,9.80
2023-05-04T22:15:19.704Z,12.60
2023-05-04T22:18:24.000Z,13.37
2023-05-04T22:21:27.804Z,9.75
2023-05-04T22:24:31.393Z,9.45
2023-05-04T22:27:36.538Z,10.80
2023-05-04T22:30:40.044Z,10.95
2023-05-04T22:33:43.730Z,13.25
2023-05-04T22:36:47.569Z,9.57
2023-05-04T22:39:51.204Z,14.73
2023-05-04T22:42:56.245Z,11.50
2023-05-04T22:45:59.910Z,11.88
2023-05-04T22:49:04.651Z,10.13
2023-05-04T22:52:08.324Z,12.57
2023-05-04T22:55:11.766Z,9.98
2023-05-04T22:58:17.155Z,13.17
2023-05-04T23:01:20.692Z,11.93
2023-05-04T23:04:24.454Z,17.42
2023-05-04T23:07:27.836Z,11.15
2023-05-04T23:10:31.483Z,8.95
2023-05-04T23:13:36.532Z,11.50
2023-05-04T23:16:40.755Z,9.65
2023-05-04T23:19:44.234Z,9.87
2023-05-04T23:22:47.901Z,10.18
2023-05-04T23:25:51.393Z,13.18
2023-05-04T23:28:56.551Z,14.57
2023-05-04T23:32:00.409Z,10.07
2023-05-04T23:35:04.415Z,12.65
2023-05-04T23:38:07.901Z,14.63
2023-05-04T23:41:12.538Z,8.85
2023-05-04T23:44:17.537Z,10.10
2023-05-04T23:47:21.198Z,12.93
2023-05-04T23:50:24.775Z,10.67
2023-05-04T23:53:28.731Z,10.70
2023-05-04T23:56:33.184Z,11.13
2023-05-04T23:59:40.219Z,12.00
